NKS1846 KDTW-KFLL
Flight info
| Callsign | NKS1846 |
|---|---|
| Flight time | N/A |
| Altitude | 36000 |
| Route | CLVIN3 STAZE VXV THRSR/N0450F370 Q79 ZPLEN TEEKY4 |
| Aircraft | A321/M-SDE3FGHIRWY/LB1 |
Departure
| Time | 2026-05-06 12:26 |
|---|---|
| Airport | Detroit Metropolitan Wayne County Airport (KDTW) |
Arrival
| Time | N/A |
|---|---|
| Airport | Fort Lauderdale Hollywood International Airport (KFLL) |
| Time | Latitude | Longitude | Altitude | Speed | Heading |
|---|---|---|---|---|---|
| 2026-05-06 11:32 | 42.22684 | -83.34842 | 649 ft | 0 kts | 119° |
| 2026-05-06 12:17 | 42.22684 | -83.34843 | 628 ft | 1 kts | 119° |
| 2026-05-06 12:18 | 42.22696 | -83.34871 | 646 ft | 4 kts | 119° |
| 2026-05-06 12:18 | 42.22706 | -83.34896 | 646 ft | 4 kts | 104° |
| 2026-05-06 12:18 | 42.22704 | -83.34923 | 649 ft | 4 kts | 33° |
| 2026-05-06 12:18 | 42.22682 | -83.34939 | 648 ft | 2 kts | 28° |
| 2026-05-06 12:19 | 42.22680 | -83.34941 | 648 ft | 0 kts | 28° |
| 2026-05-06 12:22 | 42.22682 | -83.34939 | 648 ft | 2 kts | 28° |
| 2026-05-06 12:22 | 42.22693 | -83.34931 | 647 ft | 4 kts | 29° |
| 2026-05-06 12:23 | 42.22732 | -83.34902 | 646 ft | 8 kts | 29° |
| 2026-05-06 12:23 | 42.22785 | -83.34863 | 646 ft | 10 kts | 29° |
| 2026-05-06 12:23 | 42.22848 | -83.34816 | 646 ft | 11 kts | 29° |
| 2026-05-06 12:23 | 42.22924 | -83.34775 | 646 ft | 12 kts | 356° |
| 2026-05-06 12:24 | 42.22999 | -83.34796 | 648 ft | 8 kts | 348° |
| 2026-05-06 12:24 | 42.23039 | -83.34839 | 647 ft | 8 kts | 301° |
| 2026-05-06 12:24 | 42.23069 | -83.34912 | 647 ft | 10 kts | 298° |
| 2026-05-06 12:24 | 42.23084 | -83.35012 | 646 ft | 12 kts | 247° |
| 2026-05-06 12:25 | 42.22988 | -83.35099 | 646 ft | 32 kts | 207° |
| 2026-05-06 12:25 | 42.22548 | -83.35427 | 650 ft | 109 kts | 208° |
| 2026-05-06 12:25 | 42.21692 | -83.36059 | 646 ft | 169 kts | 208° |
| 2026-05-06 12:25 | 42.20591 | -83.36874 | 1108 ft | 180 kts | 213° |
| 2026-05-06 12:26 | 42.19512 | -83.37728 | 1910 ft | 181 kts | 213° |
| 2026-05-06 12:26 | 42.18401 | -83.38625 | 2338 ft | 197 kts | 212° |
| 2026-05-06 12:26 | 42.17128 | -83.39613 | 2591 ft | 221 kts | 211° |
| 2026-05-06 12:26 | 42.15756 | -83.40758 | 2908 ft | 245 kts | 218° |
| 2026-05-06 12:27 | 42.14363 | -83.42187 | 3380 ft | 264 kts | 221° |
| 2026-05-06 12:27 | 42.12926 | -83.43769 | 4226 ft | 268 kts | 223° |
| 2026-05-06 12:27 | 42.11486 | -83.45387 | 5169 ft | 270 kts | 223° |
| 2026-05-06 12:27 | 42.10042 | -83.47008 | 6135 ft | 271 kts | 223° |
| 2026-05-06 12:28 | 42.08564 | -83.48656 | 6769 ft | 273 kts | 223° |
| 2026-05-06 12:28 | 42.07123 | -83.50247 | 6954 ft | 270 kts | 223° |
| 2026-05-06 12:28 | 42.05671 | -83.51843 | 7004 ft | 269 kts | 223° |
| 2026-05-06 12:28 | 42.04225 | -83.53432 | 7003 ft | 268 kts | 223° |
| 2026-05-06 12:29 | 42.02729 | -83.54928 | 7011 ft | 270 kts | 213° |
| 2026-05-06 12:29 | 42.00963 | -83.55851 | 7006 ft | 276 kts | 195° |
| 2026-05-06 12:29 | 41.99020 | -83.55994 | 7216 ft | 288 kts | 176° |
| 2026-05-06 12:29 | 41.97081 | -83.55295 | 8143 ft | 291 kts | 162° |
| 2026-05-06 12:30 | 41.95195 | -83.54285 | 9061 ft | 292 kts | 163° |
| 2026-05-06 12:30 | 41.93302 | -83.53269 | 9906 ft | 293 kts | 165° |
| 2026-05-06 12:30 | 41.91380 | -83.52238 | 10441 ft | 307 kts | 165° |
| 2026-05-06 12:30 | 41.89322 | -83.51142 | 10646 ft | 330 kts | 164° |
| 2026-05-06 12:31 | 41.87152 | -83.49984 | 11035 ft | 344 kts | 164° |
| 2026-05-06 12:31 | 41.84916 | -83.48777 | 11694 ft | 349 kts | 163° |
| 2026-05-06 12:31 | 41.82649 | -83.47549 | 12394 ft | 353 kts | 163° |
| 2026-05-06 12:31 | 41.80372 | -83.46316 | 13091 ft | 357 kts | 163° |
| 2026-05-06 12:32 | 41.78051 | -83.45061 | 13738 ft | 361 kts | 163° |
| 2026-05-06 12:32 | 41.75633 | -83.43758 | 14335 ft | 366 kts | 164° |
| 2026-05-06 12:32 | 41.73213 | -83.42709 | 14916 ft | 364 kts | 174° |
| 2026-05-06 12:32 | 41.71559 | -83.42370 | 15310 ft | 362 kts | 182° |
| 2026-05-06 12:33 | 41.69064 | -83.42414 | 15908 ft | 357 kts | 193° |
| 2026-05-06 12:33 | 41.66649 | -83.43110 | 16530 ft | 352 kts | 205° |
| 2026-05-06 12:33 | 41.64329 | -83.44184 | 17161 ft | 354 kts | 206° |
| 2026-05-06 12:33 | 41.61990 | -83.45261 | 17798 ft | 357 kts | 206° |
| 2026-05-06 12:34 | 41.59623 | -83.46337 | 18403 ft | 360 kts | 206° |
| 2026-05-06 12:34 | 41.57244 | -83.47410 | 18947 ft | 362 kts | 206° |
| 2026-05-06 12:34 | 41.54845 | -83.48485 | 19528 ft | 364 kts | 206° |
| 2026-05-06 12:34 | 41.52439 | -83.49566 | 20119 ft | 366 kts | 206° |
| 2026-05-06 12:35 | 41.49921 | -83.50697 | 20749 ft | 367 kts | 206° |
| 2026-05-06 12:35 | 41.47490 | -83.51787 | 21338 ft | 369 kts | 206° |
| 2026-05-06 12:35 | 41.45084 | -83.52868 | 21919 ft | 370 kts | 207° |
| 2026-05-06 12:35 | 41.42637 | -83.53970 | 22495 ft | 372 kts | 207° |
| 2026-05-06 12:36 | 41.40179 | -83.55078 | 23040 ft | 374 kts | 207° |
| 2026-05-06 12:36 | 41.37712 | -83.56189 | 23521 ft | 375 kts | 206° |
| 2026-05-06 12:36 | 41.35222 | -83.57309 | 23921 ft | 378 kts | 206° |
| 2026-05-06 12:36 | 41.32719 | -83.58430 | 24343 ft | 381 kts | 206° |
| 2026-05-06 12:37 | 41.30202 | -83.59557 | 24772 ft | 382 kts | 207° |
| 2026-05-06 12:37 | 41.27679 | -83.60687 | 25202 ft | 384 kts | 207° |
| 2026-05-06 12:37 | 41.25144 | -83.61821 | 25619 ft | 385 kts | 207° |
| 2026-05-06 12:37 | 41.22597 | -83.62961 | 26035 ft | 387 kts | 207° |
| 2026-05-06 12:38 | 41.20043 | -83.64103 | 26452 ft | 388 kts | 207° |
| 2026-05-06 12:38 | 41.17477 | -83.65247 | 26863 ft | 390 kts | 207° |
| 2026-05-06 12:38 | 41.14902 | -83.66392 | 27259 ft | 391 kts | 208° |
| 2026-05-06 12:38 | 41.12316 | -83.67541 | 27679 ft | 392 kts | 208° |
| 2026-05-06 12:39 | 41.09730 | -83.68691 | 28078 ft | 393 kts | 208° |
| 2026-05-06 12:39 | 41.07130 | -83.69847 | 28468 ft | 395 kts | 208° |
| 2026-05-06 12:39 | 41.04519 | -83.71009 | 28845 ft | 396 kts | 208° |
| 2026-05-06 12:39 | 41.01899 | -83.72181 | 29215 ft | 398 kts | 208° |
| 2026-05-06 12:40 | 40.99273 | -83.73353 | 29585 ft | 400 kts | 208° |
| 2026-05-06 12:40 | 40.96629 | -83.74528 | 29948 ft | 401 kts | 208° |
| 2026-05-06 12:40 | 40.93976 | -83.75701 | 30210 ft | 403 kts | 210° |
| 2026-05-06 12:40 | 40.91313 | -83.76877 | 30518 ft | 404 kts | 210° |
| 2026-05-06 12:41 | 40.88645 | -83.78053 | 30881 ft | 403 kts | 210° |
| 2026-05-06 12:41 | 40.85993 | -83.79217 | 31328 ft | 400 kts | 211° |
| 2026-05-06 12:41 | 40.83358 | -83.80373 | 31775 ft | 398 kts | 211° |
| 2026-05-06 12:41 | 40.80736 | -83.81526 | 32224 ft | 395 kts | 211° |
| 2026-05-06 12:42 | 40.78135 | -83.82671 | 32661 ft | 393 kts | 212° |
| 2026-05-06 12:42 | 40.75550 | -83.83811 | 33106 ft | 390 kts | 212° |
| 2026-05-06 12:42 | 40.72982 | -83.84944 | 33485 ft | 388 kts | 213° |
| 2026-05-06 12:42 | 40.70461 | -83.86057 | 33887 ft | 387 kts | 213° |
| 2026-05-06 12:43 | 40.67913 | -83.87181 | 34232 ft | 385 kts | 213° |
| 2026-05-06 12:43 | 40.65376 | -83.88300 | 34553 ft | 384 kts | 213° |
| 2026-05-06 12:43 | 40.62849 | -83.89414 | 34864 ft | 383 kts | 213° |
| 2026-05-06 12:43 | 40.60319 | -83.90526 | 35161 ft | 383 kts | 213° |
| 2026-05-06 12:44 | 40.57795 | -83.91632 | 35486 ft | 382 kts | 213° |
| 2026-05-06 12:44 | 40.55273 | -83.92736 | 35788 ft | 381 kts | 213° |
| 2026-05-06 12:44 | 40.52757 | -83.93836 | 36095 ft | 381 kts | 213° |
| 2026-05-06 12:44 | 40.50243 | -83.94937 | 36378 ft | 380 kts | 213° |
| 2026-05-06 12:45 | 40.47735 | -83.96036 | 36649 ft | 380 kts | 213° |
| 2026-05-06 12:45 | 40.45226 | -83.97134 | 36880 ft | 380 kts | 213° |
| 2026-05-06 12:46 | 40.37770 | -84.00367 | 36952 ft | 373 kts | 214° |
| 2026-05-06 12:46 | 40.32844 | -84.02516 | 36946 ft | 373 kts | 214° |
| 2026-05-06 12:47 | 40.27794 | -84.04355 | 36947 ft | 392 kts | 204° |
| 2026-05-06 12:47 | 40.22243 | -84.04848 | 36942 ft | 401 kts | 200° |
| 2026-05-06 12:48 | 40.16659 | -84.05244 | 36942 ft | 402 kts | 200° |
| 2026-05-06 12:48 | 40.11116 | -84.05663 | 36939 ft | 401 kts | 200° |
| 2026-05-06 12:49 | 40.05539 | -84.06098 | 36905 ft | 401 kts | 201° |
| 2026-05-06 12:49 | 39.99962 | -84.06531 | 36930 ft | 402 kts | 201° |
| 2026-05-06 12:50 | 39.94392 | -84.06966 | 36927 ft | 402 kts | 201° |
| 2026-05-06 12:50 | 39.88819 | -84.07400 | 36929 ft | 401 kts | 201° |
| 2026-05-06 12:51 | 39.83240 | -84.07839 | 36910 ft | 402 kts | 201° |
| 2026-05-06 12:51 | 39.77638 | -84.08278 | 36926 ft | 403 kts | 201° |
| 2026-05-06 12:52 | 39.72044 | -84.08704 | 36953 ft | 403 kts | 201° |
| 2026-05-06 12:52 | 39.66442 | -84.09137 | 36955 ft | 402 kts | 201° |
| 2026-05-06 12:53 | 39.60851 | -84.09569 | 36909 ft | 402 kts | 201° |
| 2026-05-06 12:53 | 39.55260 | -84.09994 | 36920 ft | 403 kts | 201° |
| 2026-05-06 12:54 | 39.49662 | -84.10430 | 36928 ft | 402 kts | 201° |
| 2026-05-06 12:54 | 39.44108 | -84.10869 | 36936 ft | 403 kts | 201° |
| 2026-05-06 12:55 | 39.38501 | -84.11296 | 36923 ft | 405 kts | 201° |
| 2026-05-06 12:55 | 39.32861 | -84.11725 | 36940 ft | 406 kts | 201° |
| 2026-05-06 12:56 | 39.27214 | -84.12158 | 36949 ft | 406 kts | 201° |
| 2026-05-06 12:56 | 39.21577 | -84.12591 | 36952 ft | 406 kts | 201° |
| 2026-05-06 12:57 | 39.15937 | -84.13020 | 36912 ft | 406 kts | 200° |
| 2026-05-06 12:57 | 39.10292 | -84.13446 | 36924 ft | 406 kts | 200° |
| 2026-05-06 12:58 | 39.04643 | -84.13872 | 36937 ft | 406 kts | 200° |
| 2026-05-06 12:58 | 38.98996 | -84.14306 | 36943 ft | 406 kts | 200° |
| 2026-05-06 12:59 | 38.93328 | -84.14665 | 36930 ft | 418 kts | 195° |
| 2026-05-06 12:59 | 38.87440 | -84.14178 | 36938 ft | 425 kts | 193° |
| 2026-05-06 13:00 | 38.81578 | -84.13639 | 36949 ft | 424 kts | 193° |
| 2026-05-06 13:00 | 38.75693 | -84.13126 | 36948 ft | 423 kts | 193° |
| 2026-05-06 13:01 | 38.69818 | -84.12631 | 36919 ft | 423 kts | 193° |
| 2026-05-06 13:01 | 38.63946 | -84.12125 | 36936 ft | 423 kts | 193° |
| 2026-05-06 13:02 | 38.58079 | -84.11624 | 36945 ft | 422 kts | 193° |
| 2026-05-06 13:02 | 38.52215 | -84.11125 | 36950 ft | 422 kts | 193° |
| 2026-05-06 13:03 | 38.46352 | -84.10618 | 36907 ft | 422 kts | 193° |
| 2026-05-06 13:03 | 38.40492 | -84.10119 | 36914 ft | 422 kts | 193° |
| 2026-05-06 13:04 | 38.34625 | -84.09618 | 36934 ft | 422 kts | 193° |
| 2026-05-06 13:04 | 38.28764 | -84.09118 | 36946 ft | 422 kts | 193° |
| 2026-05-06 13:05 | 38.22905 | -84.08626 | 36958 ft | 422 kts | 193° |
| 2026-05-06 13:05 | 38.17040 | -84.08129 | 36969 ft | 422 kts | 193° |
| 2026-05-06 13:06 | 38.11180 | -84.07627 | 36978 ft | 422 kts | 193° |
| 2026-05-06 13:06 | 38.05325 | -84.07131 | 36980 ft | 422 kts | 193° |
| 2026-05-06 13:07 | 37.99461 | -84.06633 | 36947 ft | 422 kts | 193° |
| 2026-05-06 13:07 | 37.93640 | -84.06146 | 36888 ft | 422 kts | 193° |
| 2026-05-06 13:08 | 37.87752 | -84.05654 | 36918 ft | 422 kts | 193° |
| 2026-05-06 13:08 | 37.81932 | -84.05162 | 36911 ft | 422 kts | 193° |
| 2026-05-06 13:09 | 37.76079 | -84.04664 | 36900 ft | 422 kts | 193° |
| 2026-05-06 13:09 | 37.70223 | -84.04169 | 36911 ft | 421 kts | 193° |
| 2026-05-06 13:10 | 37.64376 | -84.03676 | 36915 ft | 421 kts | 193° |
| 2026-05-06 13:10 | 37.58527 | -84.03187 | 36921 ft | 421 kts | 193° |
| 2026-05-06 13:11 | 37.52689 | -84.02708 | 36892 ft | 420 kts | 193° |
| 2026-05-06 13:11 | 37.46858 | -84.02226 | 36896 ft | 420 kts | 193° |
| 2026-05-06 13:12 | 37.41034 | -84.01746 | 36894 ft | 419 kts | 193° |
| 2026-05-06 13:12 | 37.35201 | -84.01259 | 36884 ft | 419 kts | 193° |
| 2026-05-06 13:13 | 37.30360 | -84.00851 | 36839 ft | 419 kts | 192° |
| 2026-05-06 13:13 | 37.24534 | -84.00364 | 36889 ft | 420 kts | 192° |
| 2026-05-06 13:14 | 37.18695 | -83.99884 | 36905 ft | 420 kts | 192° |
| 2026-05-06 13:14 | 37.12863 | -83.99407 | 36916 ft | 420 kts | 192° |
| 2026-05-06 13:15 | 37.07055 | -83.98928 | 36893 ft | 421 kts | 191° |
| 2026-05-06 13:15 | 37.01218 | -83.98442 | 36897 ft | 422 kts | 191° |
| 2026-05-06 13:16 | 36.95351 | -83.97959 | 36898 ft | 422 kts | 191° |
| 2026-05-06 13:16 | 36.89471 | -83.97478 | 36896 ft | 423 kts | 191° |
| 2026-05-06 13:17 | 36.83600 | -83.97001 | 36864 ft | 423 kts | 190° |
| 2026-05-06 13:17 | 36.77715 | -83.96522 | 36877 ft | 424 kts | 189° |
| 2026-05-06 13:18 | 36.71805 | -83.96043 | 36886 ft | 426 kts | 189° |
| 2026-05-06 13:18 | 36.65917 | -83.95556 | 36894 ft | 427 kts | 189° |
| 2026-05-06 13:19 | 36.59982 | -83.95071 | 36899 ft | 428 kts | 189° |
| 2026-05-06 13:19 | 36.54039 | -83.94589 | 36882 ft | 428 kts | 189° |
| 2026-05-06 13:20 | 36.48090 | -83.94109 | 36897 ft | 428 kts | 189° |
| 2026-05-06 13:20 | 36.42139 | -83.93630 | 36903 ft | 429 kts | 189° |
| 2026-05-06 13:21 | 36.36178 | -83.93146 | 36913 ft | 429 kts | 189° |
| 2026-05-06 13:21 | 36.30218 | -83.92664 | 36881 ft | 430 kts | 188° |
| 2026-05-06 13:22 | 36.24229 | -83.92181 | 36906 ft | 431 kts | 188° |
| 2026-05-06 13:22 | 36.18239 | -83.91702 | 36940 ft | 432 kts | 188° |
| 2026-05-06 13:23 | 36.12232 | -83.91213 | 36961 ft | 432 kts | 188° |
| 2026-05-06 13:23 | 36.06228 | -83.90723 | 36957 ft | 433 kts | 188° |
| 2026-05-06 13:24 | 36.00195 | -83.90245 | 36959 ft | 435 kts | 188° |
| 2026-05-06 13:24 | 35.94141 | -83.89771 | 36962 ft | 436 kts | 188° |
| 2026-05-06 13:25 | 35.88213 | -83.90026 | 36962 ft | 415 kts | 202° |
| 2026-05-06 13:25 | 35.82575 | -83.91409 | 36963 ft | 414 kts | 203° |
| 2026-05-06 13:26 | 35.76958 | -83.92776 | 36989 ft | 414 kts | 202° |
| 2026-05-06 13:26 | 35.71307 | -83.94141 | 36996 ft | 413 kts | 202° |
| 2026-05-06 13:27 | 35.65665 | -83.95508 | 36988 ft | 413 kts | 203° |
| 2026-05-06 13:27 | 35.60025 | -83.96876 | 36958 ft | 413 kts | 203° |
| 2026-05-06 13:28 | 35.54386 | -83.98242 | 36947 ft | 413 kts | 202° |
| 2026-05-06 13:28 | 35.48742 | -83.99611 | 36970 ft | 413 kts | 202° |
| 2026-05-06 13:29 | 35.43086 | -84.00985 | 36999 ft | 415 kts | 202° |
| 2026-05-06 13:29 | 35.37413 | -84.02355 | 37019 ft | 415 kts | 202° |
| 2026-05-06 13:30 | 35.31749 | -84.03713 | 37008 ft | 415 kts | 202° |
| 2026-05-06 13:30 | 35.26073 | -84.05074 | 37023 ft | 416 kts | 202° |
| 2026-05-06 13:31 | 35.20388 | -84.06439 | 37030 ft | 417 kts | 202° |
| 2026-05-06 13:31 | 35.14736 | -84.07800 | 36994 ft | 417 kts | 202° |
| 2026-05-06 13:32 | 35.09043 | -84.09167 | 37004 ft | 417 kts | 201° |
| 2026-05-06 13:32 | 35.03331 | -84.10528 | 37014 ft | 419 kts | 201° |
| 2026-05-06 13:33 | 34.97594 | -84.11896 | 37029 ft | 421 kts | 201° |
| 2026-05-06 13:33 | 34.91841 | -84.13263 | 37042 ft | 422 kts | 201° |
| 2026-05-06 13:34 | 34.86075 | -84.14637 | 37052 ft | 422 kts | 201° |
| 2026-05-06 13:34 | 34.80303 | -84.16009 | 37017 ft | 424 kts | 201° |
| 2026-05-06 13:35 | 34.74510 | -84.17383 | 37024 ft | 426 kts | 201° |
| 2026-05-06 13:35 | 34.68667 | -84.18776 | 37021 ft | 428 kts | 201° |
| 2026-05-06 13:36 | 34.62808 | -84.20158 | 37016 ft | 429 kts | 201° |
| 2026-05-06 13:36 | 34.56945 | -84.21543 | 36988 ft | 429 kts | 201° |
| 2026-05-06 13:37 | 34.51063 | -84.22934 | 36994 ft | 432 kts | 201° |
| 2026-05-06 13:37 | 34.45186 | -84.24326 | 37001 ft | 433 kts | 201° |
| 2026-05-06 13:38 | 34.39254 | -84.25722 | 37007 ft | 434 kts | 201° |
| 2026-05-06 13:38 | 34.33307 | -84.27118 | 36978 ft | 435 kts | 201° |
| 2026-05-06 13:39 | 34.27350 | -84.28507 | 36986 ft | 437 kts | 201° |
| 2026-05-06 13:39 | 34.21378 | -84.29907 | 37007 ft | 438 kts | 202° |
| 2026-05-06 13:40 | 34.15412 | -84.31310 | 37023 ft | 438 kts | 202° |
| 2026-05-06 13:40 | 34.09423 | -84.32713 | 37042 ft | 439 kts | 202° |
| 2026-05-06 13:41 | 34.03424 | -84.34113 | 37018 ft | 439 kts | 202° |
| 2026-05-06 13:41 | 33.97435 | -84.35504 | 37037 ft | 440 kts | 202° |
| 2026-05-06 13:42 | 33.91419 | -84.36896 | 37050 ft | 440 kts | 202° |
| 2026-05-06 13:42 | 33.85398 | -84.38297 | 37028 ft | 440 kts | 202° |
| 2026-05-06 13:43 | 33.79381 | -84.39696 | 37025 ft | 440 kts | 203° |
| 2026-05-06 13:43 | 33.73367 | -84.41096 | 37067 ft | 440 kts | 203° |
| 2026-05-06 13:44 | 33.67347 | -84.42475 | 37070 ft | 442 kts | 201° |
| 2026-05-06 13:44 | 33.64232 | -84.42802 | 37072 ft | 457 kts | 191° |
| 2026-05-06 13:44 | 33.61011 | -84.42494 | 37072 ft | 473 kts | 180° |
| 2026-05-06 13:44 | 33.57785 | -84.41486 | 37073 ft | 487 kts | 171° |
| 2026-05-06 13:45 | 33.54608 | -84.40180 | 37032 ft | 487 kts | 171° |
| 2026-05-06 13:45 | 33.44940 | -84.36258 | 37110 ft | 487 kts | 172° |
| 2026-05-06 13:46 | 33.38508 | -84.33699 | 37121 ft | 487 kts | 172° |
| 2026-05-06 13:46 | 33.32116 | -84.31157 | 37121 ft | 487 kts | 172° |
| 2026-05-06 13:47 | 33.25642 | -84.28574 | 37103 ft | 486 kts | 172° |
| 2026-05-06 13:47 | 33.19263 | -84.26021 | 37093 ft | 487 kts | 172° |
| 2026-05-06 13:48 | 33.12835 | -84.23458 | 37086 ft | 487 kts | 172° |
| 2026-05-06 13:48 | 33.06400 | -84.20903 | 37073 ft | 487 kts | 172° |
| 2026-05-06 13:49 | 32.99962 | -84.18347 | 37074 ft | 487 kts | 172° |
| 2026-05-06 13:49 | 32.93531 | -84.15800 | 37102 ft | 487 kts | 172° |
| 2026-05-06 13:50 | 32.87098 | -84.13258 | 37102 ft | 487 kts | 172° |
| 2026-05-06 13:50 | 32.80666 | -84.10712 | 37098 ft | 487 kts | 172° |
| 2026-05-06 13:51 | 32.74238 | -84.08175 | 37050 ft | 487 kts | 172° |
| 2026-05-06 13:51 | 32.67847 | -84.05662 | 37083 ft | 486 kts | 172° |
| 2026-05-06 13:52 | 32.61424 | -84.03137 | 37100 ft | 486 kts | 172° |
| 2026-05-06 13:52 | 32.55000 | -84.00615 | 37112 ft | 486 kts | 172° |
| 2026-05-06 13:53 | 32.48581 | -83.98093 | 37118 ft | 486 kts | 172° |
| 2026-05-06 13:53 | 32.42165 | -83.95585 | 37100 ft | 485 kts | 172° |
| 2026-05-06 13:54 | 32.35754 | -83.93086 | 37109 ft | 485 kts | 172° |
| 2026-05-06 13:54 | 32.29349 | -83.90589 | 37107 ft | 485 kts | 172° |
| 2026-05-06 13:55 | 32.22933 | -83.88084 | 37096 ft | 486 kts | 172° |
| 2026-05-06 13:55 | 32.16514 | -83.85574 | 37059 ft | 486 kts | 171° |
| 2026-05-06 13:56 | 32.10078 | -83.83068 | 37064 ft | 488 kts | 172° |
| 2026-05-06 13:56 | 32.03623 | -83.80580 | 37071 ft | 488 kts | 172° |
| 2026-05-06 13:57 | 31.97159 | -83.78077 | 37082 ft | 489 kts | 171° |
| 2026-05-06 13:57 | 31.90689 | -83.75565 | 37075 ft | 490 kts | 171° |
| 2026-05-06 13:58 | 31.84213 | -83.73062 | 37080 ft | 490 kts | 171° |
| 2026-05-06 13:58 | 31.77729 | -83.70568 | 37085 ft | 491 kts | 171° |
| 2026-05-06 13:59 | 31.72336 | -83.68498 | 37088 ft | 491 kts | 171° |
| 2026-05-06 13:59 | 31.65840 | -83.65996 | 37092 ft | 491 kts | 171° |
| 2026-05-06 14:00 | 31.59343 | -83.63492 | 37089 ft | 492 kts | 171° |
| 2026-05-06 14:00 | 31.52832 | -83.60992 | 37101 ft | 492 kts | 171° |
| 2026-05-06 14:01 | 31.46320 | -83.58504 | 37117 ft | 493 kts | 171° |
| 2026-05-06 14:01 | 31.39798 | -83.56010 | 37129 ft | 493 kts | 171° |
| 2026-05-06 14:02 | 31.33279 | -83.53524 | 37107 ft | 493 kts | 171° |
| 2026-05-06 14:02 | 31.26756 | -83.51038 | 37107 ft | 494 kts | 171° |
| 2026-05-06 14:03 | 31.20207 | -83.48545 | 37100 ft | 495 kts | 171° |
| 2026-05-06 14:03 | 31.13690 | -83.46063 | 37104 ft | 496 kts | 171° |
| 2026-05-06 14:04 | 31.07124 | -83.43570 | 37070 ft | 496 kts | 171° |
| 2026-05-06 14:04 | 31.00543 | -83.41077 | 37083 ft | 497 kts | 171° |
| 2026-05-06 14:05 | 30.93954 | -83.38579 | 37099 ft | 497 kts | 171° |
| 2026-05-06 14:05 | 30.87381 | -83.36099 | 37119 ft | 497 kts | 171° |
| 2026-05-06 14:06 | 30.80805 | -83.33615 | 37127 ft | 497 kts | 171° |
| 2026-05-06 14:06 | 30.74271 | -83.31151 | 37108 ft | 496 kts | 170° |
| 2026-05-06 14:07 | 30.67802 | -83.28198 | 37115 ft | 504 kts | 162° |
| 2026-05-06 14:07 | 30.61441 | -83.24765 | 37115 ft | 504 kts | 162° |
| 2026-05-06 14:08 | 30.55082 | -83.21335 | 37112 ft | 504 kts | 162° |
| 2026-05-06 14:08 | 30.48724 | -83.17912 | 37106 ft | 504 kts | 162° |
| 2026-05-06 14:09 | 30.42361 | -83.14500 | 37113 ft | 504 kts | 162° |
| 2026-05-06 14:09 | 30.35983 | -83.11089 | 37107 ft | 505 kts | 162° |
| 2026-05-06 14:10 | 30.29606 | -83.07675 | 37110 ft | 505 kts | 162° |
| 2026-05-06 14:10 | 30.23216 | -83.04259 | 37113 ft | 506 kts | 162° |
| 2026-05-06 14:11 | 30.16866 | -83.00871 | 37103 ft | 506 kts | 162° |
| 2026-05-06 14:11 | 30.10462 | -82.97462 | 37121 ft | 506 kts | 162° |
| 2026-05-06 14:12 | 30.04064 | -82.94062 | 37123 ft | 506 kts | 162° |
| 2026-05-06 14:12 | 29.97671 | -82.90668 | 37140 ft | 506 kts | 162° |
| 2026-05-06 14:13 | 29.91275 | -82.87274 | 37103 ft | 506 kts | 162° |
| 2026-05-06 14:13 | 29.84877 | -82.83885 | 37131 ft | 505 kts | 162° |
| 2026-05-06 14:14 | 29.78490 | -82.80504 | 37136 ft | 505 kts | 162° |
| 2026-05-06 14:14 | 29.72108 | -82.77130 | 37145 ft | 504 kts | 162° |
| 2026-05-06 14:15 | 29.65729 | -82.73766 | 37137 ft | 504 kts | 162° |
| 2026-05-06 14:15 | 29.59354 | -82.70410 | 37120 ft | 504 kts | 161° |
| 2026-05-06 14:16 | 29.52980 | -82.67059 | 37130 ft | 504 kts | 162° |
| 2026-05-06 14:16 | 29.46609 | -82.63717 | 37136 ft | 504 kts | 162° |
| 2026-05-06 14:17 | 29.40239 | -82.60375 | 37137 ft | 504 kts | 161° |
| 2026-05-06 14:17 | 29.33871 | -82.57026 | 37142 ft | 503 kts | 161° |
| 2026-05-06 14:18 | 29.27443 | -82.53926 | 37122 ft | 494 kts | 171° |
| 2026-05-06 14:18 | 29.20841 | -82.52713 | 37134 ft | 475 kts | 188° |
| 2026-05-06 14:19 | 29.14246 | -82.52726 | 37136 ft | 474 kts | 188° |
| 2026-05-06 14:19 | 29.07654 | -82.52719 | 37138 ft | 474 kts | 188° |
| 2026-05-06 14:20 | 29.01061 | -82.52712 | 37123 ft | 474 kts | 188° |
| 2026-05-06 14:20 | 28.94472 | -82.52711 | 37138 ft | 473 kts | 188° |
| 2026-05-06 14:21 | 28.87884 | -82.52703 | 37144 ft | 473 kts | 188° |
| 2026-05-06 14:21 | 28.81294 | -82.52696 | 37136 ft | 473 kts | 188° |
| 2026-05-06 14:22 | 28.74704 | -82.52698 | 37106 ft | 473 kts | 188° |
| 2026-05-06 14:22 | 28.68122 | -82.52700 | 37127 ft | 473 kts | 188° |
| 2026-05-06 14:23 | 28.61549 | -82.52696 | 37132 ft | 472 kts | 188° |
| 2026-05-06 14:23 | 28.54978 | -82.52690 | 37134 ft | 472 kts | 188° |
| 2026-05-06 14:24 | 28.48408 | -82.52680 | 37136 ft | 472 kts | 188° |
| 2026-05-06 14:24 | 28.41888 | -82.52673 | 37113 ft | 472 kts | 187° |
| 2026-05-06 14:25 | 28.35327 | -82.52669 | 37130 ft | 471 kts | 187° |
| 2026-05-06 14:25 | 28.28769 | -82.52667 | 37141 ft | 471 kts | 187° |
| 2026-05-06 14:26 | 28.22217 | -82.52663 | 37127 ft | 471 kts | 187° |
| 2026-05-06 14:26 | 28.15666 | -82.52665 | 37107 ft | 471 kts | 187° |
| 2026-05-06 14:27 | 28.09114 | -82.52664 | 37144 ft | 470 kts | 187° |
| 2026-05-06 14:27 | 28.02562 | -82.52653 | 37144 ft | 472 kts | 184° |
| 2026-05-06 14:28 | 27.96028 | -82.51274 | 37133 ft | 486 kts | 168° |
| 2026-05-06 14:28 | 27.89573 | -82.48963 | 37131 ft | 486 kts | 168° |
| 2026-05-06 14:29 | 27.83119 | -82.46681 | 37109 ft | 486 kts | 168° |
| 2026-05-06 14:29 | 27.76662 | -82.44406 | 37115 ft | 486 kts | 168° |
| 2026-05-06 14:30 | 27.70207 | -82.42126 | 37119 ft | 486 kts | 168° |
| 2026-05-06 14:30 | 27.63747 | -82.39835 | 37129 ft | 486 kts | 168° |
| 2026-05-06 14:31 | 27.57285 | -82.37550 | 37122 ft | 487 kts | 168° |
| 2026-05-06 14:31 | 27.50821 | -82.35279 | 37122 ft | 487 kts | 168° |
| 2026-05-06 14:32 | 27.44331 | -82.32997 | 36965 ft | 495 kts | 168° |
| 2026-05-06 14:32 | 27.41003 | -82.31831 | 36719 ft | 507 kts | 168° |
| 2026-05-06 14:32 | 27.37637 | -82.30497 | 36465 ft | 518 kts | 160° |
| 2026-05-06 14:33 | 27.34433 | -82.28583 | 36224 ft | 525 kts | 154° |
| 2026-05-06 14:33 | 27.31253 | -82.26546 | 35978 ft | 526 kts | 154° |
| 2026-05-06 14:33 | 27.28066 | -82.24512 | 35738 ft | 527 kts | 154° |
| 2026-05-06 14:33 | 27.24875 | -82.22487 | 35486 ft | 526 kts | 154° |
| 2026-05-06 14:34 | 27.21692 | -82.20472 | 35248 ft | 524 kts | 154° |
| 2026-05-06 14:34 | 27.18526 | -82.18466 | 35014 ft | 521 kts | 154° |
| 2026-05-06 14:34 | 27.15381 | -82.16471 | 34530 ft | 518 kts | 154° |
| 2026-05-06 14:34 | 27.12252 | -82.14489 | 33997 ft | 515 kts | 154° |
| 2026-05-06 14:35 | 27.09129 | -82.12518 | 33424 ft | 513 kts | 154° |
| 2026-05-06 14:35 | 27.06029 | -82.10563 | 32881 ft | 509 kts | 154° |
| 2026-05-06 14:35 | 27.02989 | -82.08646 | 32343 ft | 507 kts | 153° |
| 2026-05-06 14:35 | 26.99923 | -82.06711 | 31793 ft | 504 kts | 153° |
| 2026-05-06 14:36 | 26.96957 | -82.04633 | 31253 ft | 503 kts | 146° |
| 2026-05-06 14:36 | 26.94280 | -82.02104 | 30674 ft | 503 kts | 136° |
| 2026-05-06 14:36 | 26.91875 | -81.99270 | 30089 ft | 501 kts | 133° |
| 2026-05-06 14:36 | 26.89487 | -81.96427 | 29470 ft | 498 kts | 133° |
| 2026-05-06 14:37 | 26.87128 | -81.93627 | 28913 ft | 493 kts | 134° |
| 2026-05-06 14:37 | 26.84780 | -81.90850 | 28342 ft | 489 kts | 134° |
| 2026-05-06 14:37 | 26.82449 | -81.88101 | 27796 ft | 485 kts | 134° |
| 2026-05-06 14:37 | 26.80135 | -81.85379 | 27223 ft | 481 kts | 134° |
| 2026-05-06 14:38 | 26.77836 | -81.82680 | 26667 ft | 477 kts | 133° |
| 2026-05-06 14:38 | 26.75556 | -81.80005 | 26264 ft | 470 kts | 133° |
| 2026-05-06 14:38 | 26.73339 | -81.77415 | 25792 ft | 456 kts | 134° |
| 2026-05-06 14:38 | 26.71163 | -81.74883 | 24999 ft | 448 kts | 134° |
| 2026-05-06 14:39 | 26.68994 | -81.72365 | 24540 ft | 448 kts | 133° |
| 2026-05-06 14:39 | 26.66829 | -81.69857 | 24057 ft | 447 kts | 133° |
| 2026-05-06 14:39 | 26.64686 | -81.67375 | 23701 ft | 440 kts | 133° |
| 2026-05-06 14:39 | 26.62653 | -81.64859 | 22940 ft | 432 kts | 126° |
| 2026-05-06 14:40 | 26.60863 | -81.62174 | 22427 ft | 431 kts | 125° |
| 2026-05-06 14:40 | 26.59098 | -81.59537 | 21973 ft | 427 kts | 125° |
| 2026-05-06 14:40 | 26.57308 | -81.56881 | 21372 ft | 419 kts | 125° |
| 2026-05-06 14:40 | 26.55582 | -81.54328 | 20861 ft | 416 kts | 125° |
| 2026-05-06 14:41 | 26.53845 | -81.51764 | 20363 ft | 413 kts | 125° |
| 2026-05-06 14:41 | 26.52118 | -81.49212 | 19859 ft | 411 kts | 124° |
| 2026-05-06 14:41 | 26.50403 | -81.46669 | 19355 ft | 409 kts | 124° |
| 2026-05-06 14:41 | 26.48697 | -81.44139 | 18917 ft | 406 kts | 124° |
| 2026-05-06 14:42 | 26.47016 | -81.41647 | 18364 ft | 399 kts | 124° |
| 2026-05-06 14:42 | 26.45358 | -81.39188 | 17742 ft | 394 kts | 124° |
| 2026-05-06 14:42 | 26.43719 | -81.36762 | 17262 ft | 391 kts | 124° |
| 2026-05-06 14:42 | 26.42084 | -81.34350 | 16790 ft | 388 kts | 124° |
| 2026-05-06 14:43 | 26.40430 | -81.31941 | 16302 ft | 384 kts | 125° |
| 2026-05-06 14:43 | 26.38780 | -81.29661 | 15839 ft | 379 kts | 127° |
| 2026-05-06 14:43 | 26.37104 | -81.27429 | 15396 ft | 375 kts | 127° |
| 2026-05-06 14:43 | 26.35417 | -81.25216 | 14933 ft | 374 kts | 127° |
| 2026-05-06 14:44 | 26.33739 | -81.23016 | 14483 ft | 370 kts | 127° |
| 2026-05-06 14:44 | 26.32095 | -81.20856 | 14024 ft | 363 kts | 127° |
| 2026-05-06 14:44 | 26.30473 | -81.18707 | 13558 ft | 361 kts | 127° |
| 2026-05-06 14:45 | 26.27279 | -81.14463 | 12670 ft | 353 kts | 127° |
| 2026-05-06 14:45 | 26.25702 | -81.12381 | 12242 ft | 350 kts | 128° |
| 2026-05-06 14:45 | 26.24140 | -81.10323 | 11805 ft | 346 kts | 128° |
| 2026-05-06 14:45 | 26.22589 | -81.08280 | 11392 ft | 344 kts | 128° |
| 2026-05-06 14:46 | 26.21052 | -81.06258 | 10963 ft | 341 kts | 128° |
| 2026-05-06 14:46 | 26.19525 | -81.04254 | 10555 ft | 338 kts | 128° |
| 2026-05-06 14:46 | 26.18011 | -81.02272 | 10277 ft | 331 kts | 128° |
| 2026-05-06 14:46 | 26.16568 | -81.00385 | 9960 ft | 311 kts | 128° |
| 2026-05-06 14:47 | 26.15681 | -80.99161 | 9669 ft | 300 kts | 121° |
| 2026-05-06 14:47 | 26.14736 | -80.97121 | 10047 ft | 300 kts | 108° |
| 2026-05-06 14:47 | 26.14173 | -80.94868 | 9665 ft | 302 kts | 99° |
| 2026-05-06 14:47 | 26.13776 | -80.92594 | 8946 ft | 297 kts | 98° |
| 2026-05-06 14:48 | 26.13412 | -80.90353 | 8731 ft | 292 kts | 97° |
| 2026-05-06 14:48 | 26.13058 | -80.88133 | 8407 ft | 290 kts | 97° |
| 2026-05-06 14:48 | 26.12705 | -80.85928 | 8059 ft | 289 kts | 98° |
| 2026-05-06 14:48 | 26.12350 | -80.83735 | 7706 ft | 288 kts | 98° |
| 2026-05-06 14:49 | 26.11993 | -80.81550 | 7360 ft | 286 kts | 98° |
| 2026-05-06 14:49 | 26.11633 | -80.79370 | 7011 ft | 286 kts | 98° |
| 2026-05-06 14:49 | 26.11274 | -80.77220 | 6843 ft | 281 kts | 99° |
| 2026-05-06 14:49 | 26.10915 | -80.75076 | 6709 ft | 282 kts | 99° |
| 2026-05-06 14:50 | 26.10555 | -80.72937 | 6554 ft | 281 kts | 99° |
| 2026-05-06 14:50 | 26.10196 | -80.70807 | 6407 ft | 280 kts | 99° |
| 2026-05-06 14:50 | 26.09838 | -80.68680 | 6257 ft | 279 kts | 99° |
| 2026-05-06 14:50 | 26.09479 | -80.66559 | 6111 ft | 278 kts | 99° |
| 2026-05-06 14:51 | 26.09123 | -80.64447 | 5965 ft | 277 kts | 99° |
| 2026-05-06 14:51 | 26.08768 | -80.62346 | 5822 ft | 276 kts | 99° |
| 2026-05-06 14:51 | 26.08412 | -80.60248 | 5677 ft | 275 kts | 99° |
| 2026-05-06 14:51 | 26.08058 | -80.58157 | 5533 ft | 274 kts | 99° |
| 2026-05-06 14:52 | 26.07706 | -80.56074 | 5390 ft | 273 kts | 99° |
| 2026-05-06 14:52 | 26.07354 | -80.54005 | 5247 ft | 272 kts | 99° |
| 2026-05-06 14:52 | 26.07004 | -80.51945 | 5109 ft | 271 kts | 100° |